createdAt,value
2023-02-03T00:02:25.956Z,1.13
2023-02-03T00:04:53.401Z,1.17
2023-02-03T00:07:20.949Z,0.95
2023-02-03T00:09:48.517Z,0.65
2023-02-03T00:12:15.950Z,0.77
2023-02-03T00:14:43.385Z,0.90
2023-02-03T00:17:10.775Z,0.80
2023-02-03T00:19:38.179Z,1.00
2023-02-03T00:22:05.627Z,1.00
2023-02-03T00:24:33.050Z,0.70
2023-02-03T00:27:00.452Z,0.85
2023-02-03T00:29:28.116Z,1.02
2023-02-03T00:31:55.989Z,0.98
2023-02-03T00:34:23.479Z,1.10
2023-02-03T00:36:51.216Z,1.20
2023-02-03T00:39:18.679Z,1.00
2023-02-03T00:41:47.308Z,1.10
2023-02-03T00:44:15.364Z,0.82
2023-02-03T00:49:10.051Z,1.05
2023-02-03T00:51:37.571Z,1.00
2023-02-03T00:54:05.034Z,1.10
2023-02-03T00:56:32.534Z,0.75
2023-02-03T00:59:00.282Z,1.08
2023-02-03T01:01:27.879Z,1.08
2023-02-03T01:03:56.348Z,0.98
2023-02-03T01:06:24.154Z,1.10
2023-02-03T01:11:23.000Z,1.13
2023-02-03T01:13:52.087Z,0.85
2023-02-03T01:16:21.117Z,1.10
2023-02-03T01:18:48.917Z,1.35
2023-02-03T01:21:19.128Z,1.20
2023-02-03T01:23:47.114Z,1.00
2023-02-03T01:26:17.110Z,1.30
2023-02-03T01:28:44.961Z,0.95
2023-02-03T01:31:18.473Z,1.15
2023-02-03T01:33:48.524Z,1.00
2023-02-03T01:36:17.280Z,0.90
2023-02-03T01:38:45.562Z,1.10
2023-02-03T01:41:16.567Z,1.10
2023-02-03T01:43:51.570Z,0.93
2023-02-03T01:46:30.128Z,1.27
2023-02-03T01:49:12.210Z,1.13
2023-02-03T01:51:42.315Z,0.95
2023-02-03T01:54:17.416Z,0.90
2023-02-03T01:56:51.466Z,1.10
2023-02-03T01:59:21.300Z,1.17
2023-02-03T02:01:51.933Z,0.98
2023-02-03T02:04:20.711Z,1.00
2023-02-03T02:06:48.828Z,1.20
2023-02-03T02:11:43.811Z,1.10
2023-02-03T02:14:11.262Z,1.00
2023-02-03T02:16:49.535Z,1.00
2023-02-03T02:19:30.520Z,0.98
2023-02-03T02:22:20.753Z,0.95
2023-02-03T02:25:08.983Z,0.88
2023-02-03T02:28:08.050Z,1.10
2023-02-03T02:30:47.507Z,0.90
2023-02-03T02:33:46.428Z,0.93
2023-02-03T02:36:33.566Z,1.10
2023-02-03T02:39:09.888Z,0.80
2023-02-03T02:41:37.838Z,0.68
2023-02-03T02:44:22.127Z,1.00
2023-02-03T02:46:53.877Z,0.65
2023-02-03T02:49:30.540Z,0.80
2023-02-03T02:52:01.324Z,0.65
2023-02-03T02:54:31.393Z,1.02
2023-02-03T02:57:03.270Z,1.00
2023-02-03T02:59:31.672Z,0.98
2023-02-03T03:01:59.318Z,1.00
2023-02-03T03:04:30.103Z,0.85
2023-02-03T03:07:36.445Z,0.85
2023-02-03T03:10:11.021Z,0.98
2023-02-03T03:12:45.416Z,1.00
2023-02-03T03:15:23.020Z,1.10
2023-02-03T03:18:16.451Z,0.80
2023-02-03T03:20:46.359Z,1.00
2023-02-03T03:23:43.643Z,0.95
2023-02-03T03:26:35.694Z,1.00
2023-02-03T03:29:20.737Z,0.90
2023-02-03T03:31:48.888Z,0.90
2023-02-03T03:34:17.814Z,0.90
2023-02-03T03:36:51.124Z,0.75
2023-02-03T03:39:36.359Z,0.70
2023-02-03T03:42:18.123Z,0.93
2023-02-03T03:44:57.040Z,0.90
2023-02-03T03:47:31.314Z,0.75
2023-02-03T03:50:01.591Z,1.10
2023-02-03T03:52:33.128Z,1.08
2023-02-03T03:55:03.457Z,0.70
2023-02-03T03:57:36.433Z,0.57
2023-02-03T04:00:09.588Z,0.90
2023-02-03T04:02:42.781Z,0.95
2023-02-03T04:05:12.042Z,1.20
2023-02-03T04:07:42.448Z,0.90
2023-02-03T04:10:36.946Z,1.00
2023-02-03T04:13:05.511Z,0.85
2023-02-03T04:15:33.874Z,0.93
2023-02-03T04:18:01.819Z,0.90
2023-02-03T04:20:30.886Z,1.25
2023-02-03T04:22:58.946Z,0.90
2023-02-03T04:25:26.913Z,0.93
2023-02-03T04:27:55.306Z,1.05
2023-02-03T04:30:23.498Z,0.82
2023-02-03T04:35:19.059Z,1.08
2023-02-03T04:37:46.776Z,0.90
2023-02-03T04:40:14.659Z,2.17
2023-02-03T04:42:42.268Z,0.90
2023-02-03T04:45:11.223Z,1.10
2023-02-03T04:47:39.744Z,1.10
2023-02-03T04:50:07.733Z,1.10
2023-02-03T04:52:35.267Z,1.42
2023-02-03T04:55:03.973Z,0.95
2023-02-03T04:57:31.645Z,1.00
2023-02-03T04:59:59.166Z,1.00
2023-02-03T05:02:26.808Z,0.98
2023-02-03T05:04:54.387Z,1.20
2023-02-03T05:07:21.852Z,0.90
2023-02-03T05:09:49.322Z,1.10
2023-02-03T05:12:16.698Z,1.00
2023-02-03T05:14:44.105Z,1.20
2023-02-03T05:17:11.501Z,0.90
2023-02-03T05:19:39.111Z,0.85
2023-02-03T05:22:06.501Z,1.30
2023-02-03T05:24:33.956Z,1.20
2023-02-03T05:27:01.610Z,1.30
2023-02-03T05:29:29.087Z,1.30
2023-02-03T05:31:56.564Z,1.30
2023-02-03T05:34:24.017Z,1.00
2023-02-03T05:36:51.464Z,1.60
2023-02-03T05:39:18.966Z,1.40
2023-02-03T05:41:52.343Z,1.20
2023-02-03T05:44:25.042Z,1.65
2023-02-03T05:46:54.702Z,1.67
2023-02-03T05:49:23.231Z,1.50
2023-02-03T05:51:52.627Z,1.35
2023-02-03T05:54:20.121Z,1.50
2023-02-03T05:56:47.848Z,1.33
2023-02-03T05:59:15.397Z,1.80
2023-02-03T06:01:42.825Z,1.10
2023-02-03T06:04:10.425Z,1.30
2023-02-03T06:06:37.892Z,1.35
2023-02-03T06:09:07.534Z,1.00
2023-02-03T06:11:35.935Z,1.35
2023-02-03T06:14:04.355Z,1.30
2023-02-03T06:16:32.077Z,1.25
2023-02-03T06:19:00.933Z,1.10
2023-02-03T06:21:28.995Z,1.05
2023-02-03T06:23:56.670Z,1.30
2023-02-03T06:26:25.205Z,1.10
2023-02-03T06:28:52.826Z,1.20
2023-02-03T06:31:20.359Z,1.33
2023-02-03T06:33:47.948Z,1.08
2023-02-03T06:36:15.466Z,1.15
2023-02-03T06:38:42.933Z,1.10
2023-02-03T06:41:10.379Z,1.05
2023-02-03T06:43:37.822Z,0.90
2023-02-03T06:46:05.349Z,0.70
2023-02-03T06:48:32.851Z,1.20
2023-02-03T06:51:00.352Z,1.15
2023-02-03T06:53:27.861Z,1.17
2023-02-03T06:55:55.472Z,1.00
2023-02-03T06:58:22.946Z,1.10
2023-02-03T07:00:51.345Z,1.10
2023-02-03T07:03:19.437Z,0.93
2023-02-03T07:05:46.869Z,1.00
2023-02-03T07:08:14.333Z,0.90
2023-02-03T07:10:41.890Z,1.63
2023-02-03T07:13:09.483Z,0.93
2023-02-03T07:15:37.139Z,1.15
2023-02-03T07:18:04.624Z,1.13
2023-02-03T07:20:32.962Z,1.30
2023-02-03T07:23:00.465Z,1.40
2023-02-03T07:25:28.038Z,1.52
2023-02-03T07:27:55.587Z,1.02
2023-02-03T07:30:23.284Z,1.02
2023-02-03T07:32:52.128Z,1.30
2023-02-03T07:35:20.375Z,1.20
2023-02-03T07:40:15.861Z,0.90
2023-02-03T07:42:47.878Z,1.13
2023-02-03T07:45:17.312Z,1.10
2023-02-03T07:47:44.971Z,1.13
2023-02-03T07:50:12.807Z,1.25
2023-02-03T07:52:40.596Z,1.50
2023-02-03T07:55:09.027Z,1.67
2023-02-03T07:57:37.267Z,1.33
2023-02-03T08:02:40.328Z,1.15
2023-02-03T08:05:08.077Z,1.20
2023-02-03T08:07:35.821Z,1.15
2023-02-03T08:10:04.098Z,1.70
2023-02-03T08:12:31.770Z,1.70
2023-02-03T08:14:59.297Z,1.65
2023-02-03T08:17:27.046Z,1.45
2023-02-03T08:19:54.476Z,1.70
2023-02-03T08:22:21.968Z,1.52
2023-02-03T08:24:49.721Z,1.50
2023-02-03T08:27:20.383Z,1.52
2023-02-03T08:29:48.252Z,1.50
2023-02-03T08:32:18.269Z,1.48
2023-02-03T08:34:45.984Z,1.70
2023-02-03T08:37:15.189Z,1.70
2023-02-03T08:39:43.017Z,2.28
2023-02-03T08:42:11.129Z,1.40
2023-02-03T08:47:18.043Z,1.30
2023-02-03T08:49:45.728Z,1.77
2023-02-03T08:52:13.873Z,1.75
2023-02-03T08:54:42.112Z,1.67
2023-02-03T08:59:42.373Z,1.40
2023-02-03T09:02:15.937Z,1.48
2023-02-03T09:04:44.849Z,1.48
2023-02-03T09:07:13.362Z,1.27
2023-02-03T09:09:40.939Z,1.60
2023-02-03T09:12:09.091Z,1.42
2023-02-03T09:17:05.264Z,1.42
2023-02-03T09:19:35.351Z,1.25
2023-02-03T09:22:03.762Z,1.50
2023-02-03T09:24:31.445Z,1.40
2023-02-03T09:27:01.077Z,1.58
2023-02-03T09:29:28.839Z,1.40
2023-02-03T09:31:56.351Z,1.60
2023-02-03T09:34:23.853Z,1.60
2023-02-03T09:36:51.476Z,1.55
2023-02-03T09:39:18.984Z,1.58
2023-02-03T09:42:01.824Z,1.52
2023-02-03T09:44:54.529Z,1.77
2023-02-03T09:47:27.205Z,1.88
2023-02-03T09:50:01.343Z,2.15
2023-02-03T09:52:36.054Z,1.98
2023-02-03T09:55:29.617Z,2.08
2023-02-03T09:58:05.679Z,1.98
2023-02-03T10:00:39.905Z,1.85
2023-02-03T10:03:35.056Z,2.50
2023-02-03T10:06:21.308Z,2.50
2023-02-03T10:09:20.134Z,2.03
2023-02-03T10:12:04.825Z,1.58
2023-02-03T10:15:07.304Z,1.50
2023-02-03T10:17:41.213Z,1.38
2023-02-03T10:20:35.850Z,1.45
2023-02-03T10:23:11.215Z,1.33
2023-02-03T10:25:57.439Z,1.80
2023-02-03T10:28:31.835Z,1.60
2023-02-03T10:31:02.871Z,1.85
2023-02-03T10:33:34.447Z,1.70
2023-02-03T10:36:10.008Z,1.25
2023-02-03T10:38:37.392Z,1.60
2023-02-03T10:41:05.132Z,1.60
2023-02-03T10:43:51.384Z,1.77
2023-02-03T10:46:28.593Z,2.03
2023-02-03T10:48:56.703Z,1.80
2023-02-03T10:51:33.137Z,1.70
2023-02-03T10:54:01.123Z,1.67
2023-02-03T10:56:46.490Z,1.70
2023-02-03T10:59:29.541Z,2.10
2023-02-03T11:01:57.375Z,2.38
2023-02-03T11:04:32.952Z,1.40
2023-02-03T11:07:03.140Z,1.80
2023-02-03T11:09:40.691Z,1.92
2023-02-03T11:12:16.853Z,2.08
2023-02-03T11:14:46.943Z,2.00
2023-02-03T11:17:23.807Z,2.10
2023-02-03T11:19:53.909Z,2.20
2023-02-03T11:22:31.097Z,1.42
2023-02-03T11:25:00.101Z,1.43
2023-02-03T11:27:31.617Z,1.80
2023-02-03T11:30:19.877Z,1.45
2023-02-03T11:32:49.043Z,1.77
2023-02-03T11:35:24.600Z,1.80
2023-02-03T11:37:57.162Z,1.67
2023-02-03T11:40:33.864Z,1.73
2023-02-03T11:43:14.455Z,1.70
2023-02-03T11:45:52.085Z,1.70
2023-02-03T11:48:45.409Z,1.40
2023-02-03T11:51:21.801Z,1.65
2023-02-03T11:54:17.117Z,1.58
2023-02-03T11:57:10.411Z,1.88
2023-02-03T12:00:01.133Z,2.10
2023-02-03T12:03:02.144Z,1.58
2023-02-03T12:05:57.073Z,1.60
2023-02-03T12:09:02.232Z,1.80
2023-02-03T12:11:55.518Z,1.67
2023-02-03T12:14:31.729Z,1.67
2023-02-03T12:17:00.286Z,1.90
2023-02-03T12:20:05.671Z,1.80
2023-02-03T12:22:41.638Z,2.15
2023-02-03T12:25:44.352Z,1.88
2023-02-03T12:28:38.919Z,2.10
2023-02-03T12:31:24.513Z,1.58
2023-02-03T12:33:58.830Z,1.80
2023-02-03T12:36:41.682Z,1.65
2023-02-03T12:39:21.672Z,1.50
2023-02-03T12:41:58.389Z,2.42
2023-02-03T12:45:00.226Z,2.30
2023-02-03T12:48:03.213Z,2.10
2023-02-03T12:50:42.182Z,2.20
2023-02-03T12:53:36.610Z,2.17
2023-02-03T12:56:10.836Z,2.08
2023-02-03T12:58:57.087Z,1.73
2023-02-03T13:01:42.617Z,2.10
2023-02-03T13:04:19.908Z,2.15
2023-02-03T13:07:19.663Z,1.95
2023-02-03T13:10:03.579Z,2.20
2023-02-03T13:12:41.296Z,1.75
2023-02-03T13:15:20.845Z,1.88
2023-02-03T13:18:10.862Z,2.10
2023-02-03T13:20:38.567Z,2.80
2023-02-03T13:23:14.697Z,2.50
2023-02-03T13:25:54.077Z,2.55
2023-02-03T13:28:47.389Z,2.13
2023-02-03T13:31:36.736Z,1.90
2023-02-03T13:34:22.369Z,1.90
2023-02-03T13:37:34.630Z,2.28
2023-02-03T13:40:20.917Z,2.15
2023-02-03T13:42:58.372Z,1.92
2023-02-03T13:45:32.680Z,2.30
2023-02-03T13:48:22.180Z,2.20
2023-02-03T13:51:19.862Z,1.50
2023-02-03T13:53:48.901Z,1.77
2023-02-03T13:56:28.620Z,1.75
2023-02-03T13:59:12.916Z,1.80
2023-02-03T14:01:41.730Z,2.10
2023-02-03T14:04:29.735Z,2.22
2023-02-03T14:07:03.778Z,2.25
2023-02-03T14:09:31.476Z,2.33
2023-02-03T14:12:17.908Z,2.50
2023-02-03T14:14:52.064Z,2.00
2023-02-03T14:17:34.745Z,2.17
2023-02-03T14:20:05.307Z,2.03
2023-02-03T14:22:33.009Z,1.88
2023-02-03T14:25:06.554Z,1.88
2023-02-03T14:27:36.753Z,2.22
2023-02-03T14:30:19.300Z,1.80
2023-02-03T14:33:03.170Z,1.60
2023-02-03T14:35:34.580Z,2.00
2023-02-03T14:38:14.585Z,2.47
2023-02-03T14:40:50.784Z,2.70
2023-02-03T14:43:56.178Z,2.03
2023-02-03T14:46:41.291Z,1.92
2023-02-03T14:49:36.972Z,2.10
2023-02-03T14:52:15.300Z,1.90
2023-02-03T14:54:58.419Z,1.70
2023-02-03T14:57:53.368Z,1.98
2023-02-03T15:00:21.714Z,1.52
2023-02-03T15:03:10.189Z,1.95
2023-02-03T15:05:47.202Z,1.80
2023-02-03T15:08:40.798Z,1.80
2023-02-03T15:11:33.611Z,1.60
2023-02-03T15:14:25.804Z,2.28
2023-02-03T15:17:01.905Z,1.92
2023-02-03T15:19:39.586Z,2.00
2023-02-03T15:22:30.399Z,1.95
2023-02-03T15:25:04.369Z,3.33
2023-02-03T15:27:33.975Z,2.83
2023-02-03T15:30:16.356Z,2.70
2023-02-03T15:32:54.781Z,2.67
2023-02-03T15:35:23.379Z,2.67
2023-02-03T15:38:04.592Z,2.60
2023-02-03T15:40:43.990Z,2.38
2023-02-03T15:43:19.400Z,2.47
2023-02-03T15:45:59.428Z,2.50
2023-02-03T15:48:29.587Z,3.20
2023-02-03T15:51:03.448Z,2.60
2023-02-03T15:53:46.826Z,3.17
2023-02-03T15:56:28.681Z,2.35
2023-02-03T15:58:58.763Z,2.13
2023-02-03T16:01:28.066Z,2.22
2023-02-03T16:03:57.027Z,2.88
2023-02-03T16:06:38.391Z,2.58
2023-02-03T16:09:07.476Z,2.88
2023-02-03T16:11:39.930Z,2.55
2023-02-03T16:14:32.628Z,2.80
2023-02-03T16:17:05.521Z,2.97
2023-02-03T16:19:40.671Z,2.97
2023-02-03T16:22:32.314Z,2.80
2023-02-03T16:25:19.953Z,3.00
2023-02-03T16:28:17.418Z,2.75
2023-02-03T16:31:15.663Z,2.92
2023-02-03T16:34:06.846Z,2.22
2023-02-03T16:37:00.851Z,2.90
2023-02-03T16:39:49.068Z,2.60
2023-02-03T16:42:40.131Z,3.08
2023-02-03T16:45:34.257Z,2.90
2023-02-03T16:48:21.991Z,2.95
2023-02-03T16:50:59.612Z,3.25
2023-02-03T16:53:40.880Z,2.63
2023-02-03T16:56:12.108Z,2.88
2023-02-03T16:58:42.981Z,3.25
2023-02-03T17:01:17.788Z,3.45
2023-02-03T17:03:45.535Z,3.28
2023-02-03T17:06:18.640Z,3.60
2023-02-03T17:08:48.390Z,4.07
2023-02-03T17:11:26.978Z,3.95
2023-02-03T17:13:54.647Z,4.50
2023-02-03T17:16:25.168Z,4.68
2023-02-03T17:18:55.003Z,4.40
2023-02-03T17:21:25.342Z,4.78
2023-02-03T17:23:53.618Z,5.13
2023-02-03T17:26:21.269Z,4.07
2023-02-03T17:28:48.940Z,5.72
2023-02-03T17:31:19.291Z,4.97
2023-02-03T17:33:51.651Z,5.78
2023-02-03T17:36:21.668Z,5.18
2023-02-03T17:55:32.102Z,5.07
2023-02-03T17:58:02.496Z,5.20
2023-02-03T18:00:30.442Z,5.03
2023-02-03T18:02:58.551Z,5.32
2023-02-03T18:05:26.221Z,5.53
2023-02-03T18:07:53.742Z,5.22
2023-02-03T18:10:21.409Z,4.68
2023-02-03T18:12:49.110Z,3.75
2023-02-03T18:15:16.743Z,3.67
2023-02-03T18:17:44.338Z,4.00
2023-02-03T18:20:12.447Z,4.30
2023-02-03T18:25:19.703Z,3.97
2023-02-03T18:27:47.250Z,4.75
2023-02-03T18:30:15.214Z,5.90
2023-02-03T18:32:43.985Z,4.47
2023-02-03T18:35:18.153Z,4.43
2023-02-03T18:37:45.775Z,5.72
2023-02-03T18:40:13.402Z,6.90
2023-02-03T18:42:41.061Z,5.47
2023-02-03T18:45:10.433Z,4.55
2023-02-03T18:47:37.896Z,3.80
2023-02-03T18:50:05.649Z,3.75
2023-02-03T18:52:33.160Z,4.05
2023-02-03T18:55:03.053Z,3.53
2023-02-03T18:57:30.707Z,4.18
2023-02-03T18:59:58.228Z,4.30
2023-02-03T19:02:25.843Z,3.35
2023-02-03T19:04:53.379Z,8.13
2023-02-03T19:07:21.425Z,3.17
2023-02-03T19:09:49.036Z,3.60
2023-02-03T19:12:16.478Z,3.35
2023-02-03T19:14:43.992Z,3.00
2023-02-03T19:17:12.383Z,2.92
2023-02-03T19:19:39.821Z,3.10
2023-02-03T19:22:07.238Z,3.38
2023-02-03T19:24:34.789Z,2.45
2023-02-03T19:27:02.538Z,3.15
2023-02-03T19:29:29.992Z,2.88
2023-02-03T19:31:57.647Z,3.17
2023-02-03T19:34:26.948Z,3.10
2023-02-03T19:36:56.023Z,2.92
2023-02-03T19:39:23.413Z,3.20
2023-02-03T19:41:53.247Z,3.50
2023-02-03T19:44:20.638Z,3.38
2023-02-03T19:46:48.266Z,3.75
2023-02-03T19:49:15.755Z,3.50
2023-02-03T19:51:44.312Z,3.13
2023-02-03T19:54:15.925Z,4.25
2023-02-03T19:56:44.205Z,4.50
2023-02-03T19:59:11.704Z,4.57
2023-02-03T20:01:39.584Z,5.53
2023-02-03T20:04:07.628Z,5.32
2023-02-03T20:06:35.480Z,7.35
2023-02-03T20:09:04.192Z,6.95
2023-02-03T20:11:31.666Z,5.43
2023-02-03T20:13:59.098Z,4.95
2023-02-03T20:16:26.582Z,4.43
2023-02-03T20:18:54.358Z,3.20
2023-02-03T20:21:22.258Z,3.67
2023-02-03T20:23:49.682Z,3.90
2023-02-03T20:26:17.610Z,4.03
2023-02-03T20:28:45.901Z,4.13
2023-02-03T20:31:14.013Z,4.97
2023-02-03T20:36:10.401Z,4.50
2023-02-03T20:38:38.924Z,5.43
2023-02-03T20:41:11.129Z,5.05
2023-02-03T20:43:39.197Z,5.50
2023-02-03T20:46:12.283Z,5.40
2023-02-03T20:48:39.786Z,5.40
2023-02-03T20:51:15.233Z,5.35
2023-02-03T20:53:44.278Z,5.03
2023-02-03T20:56:18.093Z,5.03
2023-02-03T20:58:46.804Z,5.00
2023-02-03T21:01:20.771Z,5.78
2023-02-03T21:04:06.910Z,5.40
2023-02-03T21:06:35.673Z,6.35
2023-02-03T21:09:15.179Z,6.55
2023-02-03T21:11:43.347Z,6.43
2023-02-03T21:14:23.332Z,5.03
2023-02-03T21:16:51.504Z,5.85
2023-02-03T21:21:57.054Z,5.57
2023-02-03T21:24:31.654Z,6.05
2023-02-03T21:27:01.005Z,6.40
2023-02-03T21:29:42.930Z,6.45
2023-02-03T21:32:14.331Z,6.75
2023-02-03T21:34:46.351Z,7.63
2023-02-03T21:37:37.082Z,6.70
2023-02-03T21:40:26.099Z,5.53
2023-02-03T21:42:55.287Z,5.65
2023-02-03T21:45:24.282Z,6.07
2023-02-03T21:47:53.309Z,6.30
2023-02-03T21:50:31.665Z,6.00
2023-02-03T21:53:05.468Z,7.10
2023-02-03T21:55:32.880Z,7.10
2023-02-03T21:58:25.924Z,7.00
2023-02-03T22:00:55.733Z,6.78
2023-02-03T22:03:35.469Z,7.28
2023-02-03T22:06:09.243Z,6.80
2023-02-03T22:08:41.774Z,7.43
2023-02-03T22:11:09.814Z,7.47
2023-02-03T22:13:37.439Z,7.28
2023-02-03T22:16:05.164Z,7.05
2023-02-03T22:18:33.080Z,7.45
2023-02-03T22:21:00.857Z,7.43
2023-02-03T22:23:28.352Z,7.57
2023-02-03T22:25:55.958Z,7.22
2023-02-03T22:28:23.569Z,7.50
2023-02-03T22:30:51.130Z,7.63
2023-02-03T22:33:19.067Z,8.48
2023-02-03T22:35:46.595Z,8.07
2023-02-03T22:38:14.028Z,7.88
2023-02-03T22:40:41.512Z,8.52
2023-02-03T22:43:08.920Z,8.40
2023-02-03T22:45:36.420Z,9.05
2023-02-03T22:48:09.450Z,8.88
2023-02-03T22:50:37.116Z,8.40
2023-02-03T22:53:05.107Z,7.65
2023-02-03T22:55:38.405Z,9.02
2023-02-03T22:58:07.277Z,9.05
2023-02-03T23:00:35.594Z,8.60
2023-02-03T23:03:04.147Z,8.40
2023-02-03T23:05:31.940Z,8.20
2023-02-03T23:08:00.144Z,8.27
2023-02-03T23:10:31.979Z,8.75
2023-02-03T23:13:03.103Z,8.60
2023-02-03T23:15:30.694Z,8.60
2023-02-03T23:17:58.458Z,8.82
2023-02-03T23:20:25.978Z,8.07
2023-02-03T23:22:53.742Z,8.35
2023-02-03T23:25:21.150Z,8.40
2023-02-03T23:27:48.660Z,8.65
2023-02-03T23:30:17.758Z,9.18
2023-02-03T23:32:45.182Z,9.65
2023-02-03T23:35:31.766Z,9.00
2023-02-03T23:37:59.190Z,9.00
2023-02-03T23:40:26.638Z,9.02
2023-02-03T23:42:54.308Z,9.23
2023-02-03T23:45:21.713Z,9.52
2023-02-03T23:47:49.183Z,10.00
2023-02-03T23:50:18.830Z,8.65
2023-02-03T23:52:46.934Z,8.82
2023-02-03T23:55:17.889Z,9.48
2023-02-03T23:57:45.917Z,9.35
